| time (UTC) | temp F | wind direction | speed MPH | gust MPH | rain 1hr in | rain 24hr in | rain mn in | humidity % | barometer mb |
| 20260510225420 | 65 | 212 | 1.0 | 1.0 | 0.00 | 0.00 | 0.00 | 65 | 1029.4 |
| 20260510224915 | 65 | 272 | 1.0 | 1.0 | 0.00 | 0.00 | 0.00 | 64 | 1029.3 |
| 20260510224413 | 65 | 351 | 1.0 | 1.0 | 0.00 | 0.00 | 0.00 | 64 | 1029.2 |
| 20260510223909 | 65 | 178 | 1.0 | 2.0 | 0.00 | 0.00 | 0.00 | 64 | 1029.4 |
| 20260510223406 | 65 | 252 | 2.0 | 4.0 | 0.00 | 0.00 | 0.00 | 63 | 1029.3 |
| 20260510222904 | 65 | 247 | 2.0 | 2.0 | 0.00 | 0.00 | 0.00 | 63 | 1029.3 |
| 20260510222401 | 66 | 276 | 1.0 | 1.0 | 0.00 | 0.00 | 0.00 | 62 | 1029.5 |
| 20260510221855 | 66 | 278 | 3.0 | 4.0 | 0.00 | 0.00 | 0.00 | 61 | 1029.4 |
| 20260510221353 | 66 | 250 | 0.0 | 0.0 | 0.00 | 0.00 | 0.00 | 65 | 1029.4 |
| 20260510220849 | 66 | 261 | 1.0 | 1.0 | 0.00 | 0.00 | 0.00 | 65 | 1029.1 |
| 20260510220345 | 66 | 151 | 1.0 | 2.0 | 0.00 | 0.00 | 0.00 | 65 | 1029.2 |
| 20260510215842 | 66 | 356 | 2.0 | 3.0 | 0.00 | 0.00 | 0.00 | 65 | 1029.0 |
| 20260510215339 | 67 | 153 | 1.0 | 2.0 | 0.00 | 0.00 | 0.00 | 63 | 1029.0 |
| 20260510214837 | 68 | 89 | 2.0 | 2.0 | 0.00 | 0.00 | 0.00 | 66 | 1029.0 |
| 20260510214333 | 66 | 288 | 2.0 | 2.0 | 0.00 | 0.00 | 0.00 | 70 | 1029.1 |
| 20260510213831 | 66 | 230 | 1.0 | 1.0 | 0.00 | 0.00 | 0.00 | 72 | 1028.8 |
| 20260510213327 | 66 | 336 | 2.0 | 3.0 | 0.00 | 0.00 | 0.00 | 73 | 1029.0 |
| 20260510212824 | 67 | 190 | 2.0 | 3.0 | 0.00 | 0.00 | 0.00 | 71 | 1028.9 |
| 20260510212321 | 66 | 218 | 1.0 | 2.0 | 0.00 | 0.00 | 0.00 | 74 | 1028.9 |
| 20260510211818 | 66 | 289 | 3.0 | 4.0 | 0.00 | 0.00 | 0.00 | 74 | 1028.9 |
| 20260510211313 | 66 | 225 | 3.0 | 7.0 | 0.00 | 0.00 | 0.00 | 73 | 1028.8 |
| 20260510210809 | 66 | 225 | 0.0 | 1.0 | 0.00 | 0.00 | 0.00 | 72 | 1028.9 |
| 20260510210304 | 66 | 280 | 3.0 | 6.0 | 0.00 | 0.00 | 0.00 | 70 | 1028.8 |
| 20260510205803 | 66 | 234 | 1.0 | 1.0 | 0.00 | 0.00 | 0.00 | 70 | 1028.7 |
| 20260510205259 | 66 | 132 | 1.0 | 2.0 | 0.00 | 0.00 | 0.00 | 70 | 1028.6 |
| 20260510204755 | 67 | 283 | 1.0 | 1.0 | 0.00 | 0.00 | 0.00 | 70 | 1028.3 |
| 20260510204252 | 67 | 45 | 1.0 | 2.0 | 0.00 | 0.00 | 0.00 | 70 | 1028.4 |
| 20260510203749 | 67 | 266 | 2.0 | 3.0 | 0.00 | 0.00 | 0.00 | 70 | 1028.4 |
| 20260510203247 | 67 | 179 | 1.0 | 1.0 | 0.00 | 0.00 | 0.00 | 69 | 1028.1 |
| 20260510202746 | 67 | 16 | 1.0 | 1.0 | 0.00 | 0.00 | 0.00 | 69 | 1028.2 |
| 20260510202242 | 68 | 6 | 2.0 | 4.0 | 0.00 | 0.00 | 0.00 | 68 | 1028.3 |
| 20260510201740 | 68 | 311 | 5.0 | 7.0 | 0.00 | 0.00 | 0.00 | 68 | 1028.1 |
| 20260510201236 | 68 | 86 | 1.0 | 2.0 | 0.00 | 0.00 | 0.00 | 68 | 1028.1 |
| 20260510200733 | 68 | 285 | 2.0 | 2.0 | 0.00 | 0.00 | 0.00 | 68 | 1028.0 |
| 20260510200230 | 68 | 83 | 0.0 | 1.0 | 0.00 | 0.00 | 0.00 | 67 | 1028.1 |
| 20260510195727 | 68 | 240 | 0.0 | 1.0 | 0.00 | 0.00 | 0.00 | 67 | 1028.3 |
| 20260510195224 | 68 | 249 | 0.0 | 0.0 | 0.00 | 0.00 | 0.00 | 66 | 1028.1 |
| 20260510194723 | 68 | 157 | 2.0 | 3.0 | 0.00 | 0.00 | 0.00 | 65 | 1028.4 |
| 20260510194220 | 69 | 202 | 1.0 | 1.0 | 0.00 | 0.00 | 0.00 | 65 | 1028.3 |
| 20260510193715 | 69 | 260 | 2.0 | 2.0 | 0.00 | 0.00 | 0.00 | 63 | 1028.1 |
| 20260510193210 | 69 | 232 | 2.0 | 3.0 | 0.00 | 0.00 | 0.00 | 63 | 1028.3 |
| 20260510192706 | 69 | 176 | 2.0 | 3.0 | 0.00 | 0.00 | 0.00 | 63 | 1028.3 |
| 20260510192201 | 70 | 211 | 1.0 | 2.0 | 0.00 | 0.00 | 0.00 | 61 | 1028.3 |
| 20260510191658 | 70 | 100 | 0.0 | 1.0 | 0.00 | 0.00 | 0.00 | 62 | 1028.3 |
| 20260510191155 | 70 | 74 | 0.0 | 0.0 | 0.00 | 0.00 | 0.00 | 62 | 1028.3 |
| 20260510190652 | 71 | 274 | 5.0 | 7.0 | 0.00 | 0.00 | 0.00 | 60 | 1028.4 |
| 20260510190149 | 72 | 289 | 1.0 | 2.0 | 0.00 | 0.00 | 0.00 | 60 | 1028.5 |
| 20260510185646 | 71 | 303 | 2.0 | 3.0 | 0.00 | 0.00 | 0.00 | 61 | 1028.6 |
| 20260510185144 | 72 | 246 | 3.0 | 3.0 | 0.00 | 0.00 | 0.00 | 59 | 1028.8 |
| 20260510184640 | 72 | 305 | 0.0 | 1.0 | 0.00 | 0.00 | 0.00 | 59 | 1028.8 |
| 20260510184136 | 72 | 256 | 3.0 | 6.0 | 0.00 | 0.00 | 0.00 | 57 | 1028.5 |
| 20260510183631 | 71 | 268 | 2.0 | 3.0 | 0.00 | 0.00 | 0.00 | 62 | 1028.6 |
| 20260510183127 | 71 | 265 | 4.0 | 4.0 | 0.00 | 0.00 | 0.00 | 59 | 1028.3 |
| 20260510182624 | 71 | 43 | 3.0 | 3.0 | 0.00 | 0.00 | 0.00 | 61 | 1028.5 |
| 20260510182120 | 71 | 196 | 2.0 | 2.0 | 0.00 | 0.00 | 0.00 | 61 | 1028.7 |
| 20260510181617 | 71 | 173 | 1.0 | 1.0 | 0.00 | 0.00 | 0.00 | 62 | 1028.5 |
| 20260510181113 | 70 | 121 | 1.0 | 2.0 | 0.00 | 0.00 | 0.00 | 62 | 1028.7 |
| 20260510180609 | 69 | 262 | 4.0 | 4.0 | 0.00 | 0.00 | 0.00 | 62 | 1028.7 |
| 20260510180107 | 70 | 215 | 2.0 | 3.0 | 0.00 | 0.00 | 0.00 | 61 | 1028.6 |
| 20260510175603 | 70 | 247 | 2.0 | 3.0 | 0.00 | 0.00 | 0.00 | 61 | 1028.8 |
| 20260510175058 | 70 | 347 | 1.0 | 2.0 | 0.00 | 0.00 | 0.00 | 62 | 1028.9 |
| 20260510174557 | 70 | 274 | 4.0 | 6.0 | 0.00 | 0.00 | 0.00 | 60 | 1028.8 |
| 20260510174054 | 69 | 89 | 2.0 | 4.0 | 0.00 | 0.00 | 0.00 | 66 | 1028.7 |
| 20260510173549 | 69 | 248 | 0.0 | 1.0 | 0.00 | 0.00 | 0.00 | 69 | 1028.8 |
| 20260510173046 | 68 | 341 | 4.0 | 6.0 | 0.00 | 0.00 | 0.00 | 68 | 1028.9 |
| 20260510172542 | 67 | 106 | 1.0 | 2.0 | 0.00 | 0.00 | 0.00 | 71 | 1028.8 |
| 20260510172038 | 68 | 265 | 2.0 | 2.0 | 0.00 | 0.00 | 0.00 | 69 | 1028.9 |
| 20260510171535 | 68 | 265 | 3.0 | 4.0 | 0.00 | 0.00 | 0.00 | 68 | 1029.0 |
| 20260510171032 | 66 | 242 | 1.0 | 2.0 | 0.00 | 0.00 | 0.00 | 71 | 1029.0 |
| 20260510170528 | 66 | 301 | 3.0 | 3.0 | 0.00 | 0.00 | 0.00 | 71 | 1029.1 |
| 20260510170025 | 65 | 197 | 0.0 | 0.0 | 0.00 | 0.00 | 0.00 | 74 | 1029.1 |
| 20260510165521 | 66 | 183 | 0.0 | 1.0 | 0.00 | 0.00 | 0.00 | 75 | 1029.3 |
| 20260510165017 | 66 | 346 | 4.0 | 4.0 | 0.00 | 0.00 | 0.00 | 74 | 1029.3 |
| 20260510164514 | 66 | 204 | 0.0 | 0.0 | 0.00 | 0.00 | 0.00 | 72 | 1029.2 |
| 20260510164010 | 66 | 60 | 1.0 | 2.0 | 0.00 | 0.00 | 0.00 | 74 | 1029.3 |
| 20260510163506 | 65 | 254 | 0.0 | 0.0 | 0.00 | 0.00 | 0.00 | 75 | 1029.2 |
| 20260510163002 | 66 | 149 | 0.0 | 1.0 | 0.00 | 0.00 | 0.00 | 73 | 1029.3 |
| 20260510162458 | 65 | 307 | 1.0 | 1.0 | 0.00 | 0.00 | 0.00 | 75 | 1029.4 |
| 20260510161954 | 65 | 282 | 1.0 | 1.0 | 0.00 | 0.00 | 0.00 | 74 | 1029.3 |
| 20260510161450 | 65 | 301 | 1.0 | 1.0 | 0.00 | 0.00 | 0.00 | 74 | 1029.3 |
| 20260510160948 | 65 | 166 | 2.0 | 2.0 | 0.00 | 0.00 | 0.00 | 74 | 1029.3 |
| 20260510160445 | 65 | 216 | 1.0 | 1.0 | 0.00 | 0.00 | 0.00 | 74 | 1029.4 |
| 20260510155943 | 64 | 230 | 3.0 | 3.0 | 0.00 | 0.00 | 0.00 | 75 | 1029.5 |
| 20260510155440 | 63 | 53 | 0.0 | 1.0 | 0.00 | 0.00 | 0.00 | 77 | 1029.4 |
| 20260510154937 | 64 | 281 | 1.0 | 2.0 | 0.00 | 0.00 | 0.00 | 75 | 1029.7 |
| 20260510154433 | 64 | 138 | 1.0 | 3.0 | 0.00 | 0.00 | 0.00 | 74 | 1029.7 |
| 20260510153931 | 64 | 133 | 4.0 | 6.0 | 0.00 | 0.00 | 0.00 | 75 | 1029.7 |
| 20260510153428 | 64 | 121 | 1.0 | 1.0 | 0.00 | 0.00 | 0.00 | 76 | 1029.6 |
| 20260510152925 | 63 | 178 | 1.0 | 2.0 | 0.00 | 0.00 | 0.00 | 76 | 1029.7 |
| 20260510152423 | 64 | 248 | 5.0 | 6.0 | 0.00 | 0.00 | 0.00 | 76 | 1029.6 |
| 20260510151919 | 63 | 20 | 0.0 | 0.0 | 0.00 | 0.00 | 0.00 | 77 | 1029.6 |
| 20260510151416 | 62 | 244 | 2.0 | 2.0 | 0.00 | 0.00 | 0.00 | 79 | 1029.7 |
| 20260510150912 | 61 | 114 | 1.0 | 2.0 | 0.00 | 0.00 | 0.00 | 81 | 1029.7 |
| 20260510150408 | 61 | 123 | 2.0 | 2.0 | 0.00 | 0.00 | 0.00 | 80 | 1029.7 |
| 20260510145904 | 60 | 200 | 0.0 | 0.0 | 0.00 | 0.00 | 0.00 | 82 | 1029.8 |
| 20260510145401 | 60 | 306 | 2.0 | 2.0 | 0.00 | 0.00 | 0.00 | 81 | 1029.6 |
| 20260510144858 | 59 | 165 | 1.0 | 2.0 | 0.00 | 0.00 | 0.00 | 82 | 1029.6 |
| 20260510144355 | 59 | 237 | 2.0 | 2.0 | 0.00 | 0.00 | 0.00 | 82 | 1029.6 |
| 20260510143855 | 59 | 122 | 0.0 | 1.0 | 0.00 | 0.00 | 0.00 | 81 | 1029.7 |
| 20260510143351 | 59 | 125 | 2.0 | 2.0 | 0.00 | 0.00 | 0.00 | 82 | 1029.6 |
| 20260510142848 | 59 | 116 | 2.0 | 2.0 | 0.00 | 0.00 | 0.00 | 82 | 1029.9 |
| 20260510142344 | 58 | 149 | 2.0 | 2.0 | 0.00 | 0.00 | 0.00 | 83 | 1029.7 |
| 20260510141841 | 59 | 239 | 3.0 | 3.0 | 0.00 | 0.00 | 0.00 | 83 | 1029.4 |
| 20260510141339 | 58 | 85 | 0.0 | 1.0 | 0.00 | 0.00 | 0.00 | 85 | 1029.5 |
| 20260510140836 | 58 | 109 | 2.0 | 3.0 | 0.00 | 0.00 | 0.00 | 84 | 1029.4 |
| 20260510140332 | 57 | 220 | 0.0 | 1.0 | 0.00 | 0.00 | 0.00 | 86 | 1029.4 |
| 20260510135830 | 57 | 228 | 0.0 | 0.0 | 0.00 | 0.00 | 0.00 | 86 | 1029.7 |
| 20260510135327 | 57 | 148 | 0.0 | 1.0 | 0.00 | 0.00 | 0.00 | 87 | 1029.5 |
| 20260510134825 | 57 | 229 | 0.0 | 1.0 | 0.00 | 0.00 | 0.00 | 86 | 1029.7 |
| 20260510134321 | 57 | 165 | 0.0 | 1.0 | 0.00 | 0.00 | 0.00 | 86 | 1029.7 |
| 20260510133817 | 57 | 177 | 0.0 | 1.0 | 0.00 | 0.00 | 0.00 | 86 | 1029.6 |
| 20260510133314 | 57 | 149 | 1.0 | 1.0 | 0.00 | 0.00 | 0.00 | 85 | 1029.5 |
| 20260510132809 | 57 | 101 | 0.0 | 0.0 | 0.00 | 0.00 | 0.00 | 85 | 1029.5 |
| 20260510132308 | 57 | 141 | 1.0 | 2.0 | 0.00 | 0.00 | 0.00 | 85 | 1029.4 |
| 20260510131804 | 57 | 221 | 0.0 | 0.0 | 0.00 | 0.00 | 0.00 | 84 | 1029.5 |
| 20260510131302 | 57 | 136 | 0.0 | 1.0 | 0.00 | 0.00 | 0.00 | 83 | 1029.4 |
| 20260510130758 | 58 | 71 | 1.0 | 2.0 | 0.00 | 0.00 | 0.00 | 81 | 1029.5 |
| 20260510130255 | 58 | 248 | 1.0 | 2.0 | 0.00 | 0.00 | 0.00 | 81 | 1029.5 |
| 20260510125751 | 58 | 195 | 0.0 | 0.0 | 0.00 | 0.00 | 0.00 | 83 | 1029.5 |
| 20260510125247 | 58 | 140 | 1.0 | 1.0 | 0.00 | 0.00 | 0.00 | 82 | 1029.5 |
| 20260510124744 | 58 | 275 | 0.0 | 0.0 | 0.00 | 0.00 | 0.00 | 81 | 1029.4 |
| 20260510124242 | 58 | 149 | 0.0 | 0.0 | 0.00 | 0.00 | 0.00 | 81 | 1029.2 |
| 20260510123737 | 59 | 249 | 2.0 | 2.0 | 0.00 | 0.00 | 0.00 | 79 | 1029.1 |
| 20260510123234 | 59 | 143 | 0.0 | 0.0 | 0.00 | 0.00 | 0.00 | 80 | 1028.9 |
| 20260510122730 | 59 | 198 | 1.0 | 1.0 | 0.00 | 0.00 | 0.00 | 82 | 1029.1 |
| 20260510122226 | 58 | 134 | 0.0 | 0.0 | 0.00 | 0.00 | 0.00 | 84 | 1028.9 |
| 20260510121722 | 57 | 125 | 0.0 | 0.0 | 0.00 | 0.00 | 0.00 | 84 | 1029.1 |
| 20260510121220 | 57 | 96 | 1.0 | 1.0 | 0.00 | 0.00 | 0.00 | 87 | 1029.3 |
| 20260510120717 | 56 | 118 | 0.0 | 0.0 | 0.00 | 0.00 | 0.00 | 90 | 1029.0 |
| 20260510120213 | 55 | 143 | 0.0 | 1.0 | 0.00 | 0.00 | 0.00 | 92 | 1029.1 |
| 20260510115709 | 54 | 136 | 0.0 | 0.0 | 0.00 | 0.00 | 0.00 | 92 | 1029.0 |
| 20260510115208 | 53 | 0 | 0.0 | 1.0 | 0.00 | 0.00 | 0.00 | 94 | 1029.1 |
| 20260510114703 | 53 | 181 | 0.0 | 0.0 | 0.00 | 0.00 | 0.00 | 94 | 1029.1 |
| 20260510114200 | 53 | 138 | 3.0 | 3.0 | 0.00 | 0.00 | 0.00 | 95 | 1029.0 |
| 20260510113654 | 52 | 174 | 1.0 | 1.0 | 0.00 | 0.00 | 0.00 | 95 | 1028.8 |
| 20260510113152 | 52 | 122 | 0.0 | 0.0 | 0.00 | 0.00 | 0.00 | 95 | 1028.9 |
| 20260510112649 | 52 | 161 | 0.0 | 0.0 | 0.00 | 0.00 | 0.00 | 95 | 1028.9 |
| 20260510112146 | 52 | 172 | 0.0 | 0.0 | 0.00 | 0.00 | 0.00 | 95 | 1028.7 |
| 20260510111641 | 52 | 9 | 0.0 | 1.0 | 0.00 | 0.00 | 0.00 | 95 | 1028.7 |
| 20260510111137 | 52 | 182 | 0.0 | 0.0 | 0.00 | 0.00 | 0.00 | 95 | 1028.8 |
| 20260510110633 | 52 | 157 | 0.0 | 0.0 | 0.00 | 0.00 | 0.00 | 95 | 1028.8 |
| 20260510110131 | 52 | 123 | 1.0 | 1.0 | 0.00 | 0.00 | 0.00 | 95 | 1028.8 |
| 20260510105626 | 52 | 158 | 0.0 | 0.0 | 0.00 | 0.00 | 0.00 | 95 | 1028.8 |
| 20260510105120 | 51 | 137 | 1.0 | 1.0 | 0.00 | 0.00 | 0.00 | 95 | 1028.8 |
| 20260510104618 | 52 | 167 | 0.0 | 0.0 | 0.00 | 0.00 | 0.00 | 95 | 1029.0 |
| 20260510104114 | 52 | 279 | 0.0 | 0.0 | 0.00 | 0.00 | 0.00 | 95 | 1028.7 |
| 20260510103612 | 51 | 258 | 1.0 | 1.0 | 0.00 | 0.00 | 0.00 | 96 | 1028.6 |
| 20260510103107 | 51 | 271 | 1.0 | 2.0 | 0.00 | 0.00 | 0.00 | 96 | 1028.1 |
| 20260510102603 | 51 | 135 | 1.0 | 2.0 | 0.00 | 0.00 | 0.00 | 96 | 1027.8 |
| 20260510102059 | 51 | 120 | 2.0 | 2.0 | 0.00 | 0.00 | 0.00 | 96 | 1028.3 |
| 20260510101557 | 51 | 116 | 1.0 | 1.0 | 0.00 | 0.00 | 0.00 | 96 | 1028.5 |
| 20260510101055 | 51 | 87 | 2.0 | 2.0 | 0.00 | 0.00 | 0.00 | 96 | 1028.4 |
| 20260510100551 | 51 | 101 | 0.0 | 0.0 | 0.00 | 0.00 | 0.00 | 97 | 1028.4 |
| 20260510100049 | 51 | 150 | 0.0 | 0.0 | 0.00 | 0.00 | 0.00 | 97 | 1028.5 |
| 20260510095544 | 51 | 139 | 0.0 | 0.0 | 0.00 | 0.00 | 0.00 | 97 | 1028.8 |
| 20260510095044 | 51 | 141 | 0.0 | 0.0 | 0.00 | 0.00 | 0.00 | 97 | 1028.5 |
| 20260510094538 | 51 | 132 | 0.0 | 0.0 | 0.00 | 0.00 | 0.00 | 97 | 1028.5 |
| 20260510094034 | 51 | 130 | 0.0 | 0.0 | 0.00 | 0.00 | 0.00 | 97 | 1028.5 |
| 20260510093530 | 51 | 128 | 0.0 | 0.0 | 0.00 | 0.00 | 0.00 | 97 | 1028.5 |
| 20260510093027 | 51 | 120 | 1.0 | 1.0 | 0.00 | 0.00 | 0.00 | 97 | 1028.5 |
| 20260510092524 | 51 | 127 | 0.0 | 0.0 | 0.00 | 0.00 | 0.00 | 97 | 1028.6 |
| 20260510092023 | 51 | 128 | 0.0 | 0.0 | 0.00 | 0.00 | 0.00 | 97 | 1028.6 |
| 20260510091521 | 51 | 177 | 0.0 | 0.0 | 0.00 | 0.00 | 0.00 | 97 | 1028.8 |
| 20260510091016 | 51 | 180 | 0.0 | 0.0 | 0.00 | 0.00 | 0.00 | 97 | 1028.6 |
| 20260510090514 | 51 | 185 | 0.0 | 0.0 | 0.00 | 0.00 | 0.00 | 97 | 1028.9 |
| 20260510090010 | 51 | 189 | 0.0 | 0.0 | 0.00 | 0.00 | 0.00 | 97 | 1028.9 |
| 20260510085510 | 51 | 184 | 0.0 | 0.0 | 0.00 | 0.00 | 0.00 | 97 | 1028.6 |
| 20260510085006 | 51 | 220 | 0.0 | 0.0 | 0.00 | 0.00 | 0.00 | 97 | 1028.5 |
| 20260510084503 | 51 | 220 | 0.0 | 0.0 | 0.00 | 0.00 | 0.00 | 96 | 1028.5 |
| 20260510083959 | 51 | 200 | 0.0 | 0.0 | 0.00 | 0.00 | 0.00 | 96 | 1028.4 |
| 20260510083456 | 51 | 202 | 0.0 | 0.0 | 0.00 | 0.00 | 0.00 | 96 | 1028.5 |
| 20260510082951 | 51 | 202 | 0.0 | 0.0 | 0.00 | 0.00 | 0.00 | 96 | 1028.4 |
| 20260510082449 | 52 | 202 | 0.0 | 0.0 | 0.00 | 0.00 | 0.00 | 96 | 1028.2 |
| 20260510081949 | 51 | 200 | 0.0 | 0.0 | 0.00 | 0.00 | 0.00 | 96 | 1028.2 |
| 20260510081445 | 51 | 236 | 0.0 | 0.0 | 0.00 | 0.00 | 0.00 | 96 | 1028.4 |
| 20260510080941 | 51 | 236 | 0.0 | 0.0 | 0.00 | 0.00 | 0.00 | 96 | 1028.2 |
| 20260510080439 | 51 | 158 | 0.0 | 0.0 | 0.00 | 0.00 | 0.00 | 96 | 1028.1 |
| 20260510075937 | 51 | 155 | 0.0 | 0.0 | 0.00 | 0.00 | 0.00 | 96 | 1028.1 |
| 20260510075435 | 51 | 157 | 0.0 | 0.0 | 0.00 | 0.00 | 0.00 | 96 | 1028.1 |
| 20260510074931 | 51 | 157 | 0.0 | 0.0 | 0.00 | 0.00 | 0.00 | 96 | 1028.1 |
| 20260510074428 | 51 | 156 | 0.0 | 0.0 | 0.00 | 0.00 | 0.00 | 96 | 1028.0 |
| 20260510073925 | 51 | 141 | 0.0 | 0.0 | 0.00 | 0.00 | 0.00 | 96 | 1028.2 |
| 20260510073420 | 51 | 168 | 0.0 | 0.0 | 0.00 | 0.00 | 0.00 | 96 | 1028.1 |
| 20260510072917 | 51 | 141 | 0.0 | 0.0 | 0.00 | 0.00 | 0.00 | 96 | 1028.1 |
| 20260510072414 | 51 | 145 | 0.0 | 0.0 | 0.00 | 0.00 | 0.00 | 96 | 1028.3 |
| 20260510071909 | 51 | 145 | 0.0 | 0.0 | 0.00 | 0.00 | 0.00 | 96 | 1028.1 |
| 20260510071406 | 52 | 153 | 0.0 | 0.0 | 0.00 | 0.00 | 0.00 | 96 | 1028.1 |
| 20260510070904 | 52 | 154 | 0.0 | 0.0 | 0.00 | 0.00 | 0.00 | 96 | 1028.2 |
| 20260510070401 | 52 | 152 | 0.0 | 0.0 | 0.00 | 0.00 | 0.00 | 96 | 1028.3 |
| 20260510065856 | 52 | 176 | 0.0 | 0.0 | 0.00 | 0.00 | 0.00 | 96 | 1028.2 |
| 20260510065353 | 52 | 179 | 0.0 | 0.0 | 0.00 | 0.00 | 0.00 | 96 | 1028.2 |
| 20260510064849 | 52 | 174 | 0.0 | 0.0 | 0.00 | 0.00 | 0.00 | 97 | 1028.2 |
| 20260510064348 | 52 | 132 | 0.0 | 0.0 | 0.00 | 0.00 | 0.00 | 97 | 1028.0 |
| 20260510063843 | 52 | 139 | 0.0 | 0.0 | 0.00 | 0.00 | 0.00 | 97 | 1027.8 |
| 20260510063340 | 52 | 145 | 0.0 | 0.0 | 0.00 | 0.00 | 0.00 | 97 | 1027.7 |
| 20260510062837 | 52 | 154 | 0.0 | 0.0 | 0.00 | 0.00 | 0.00 | 97 | 1027.7 |
| 20260510062332 | 52 | 147 | 0.0 | 0.0 | 0.00 | 0.00 | 0.00 | 97 | 1027.7 |
| 20260510061828 | 52 | 162 | 0.0 | 0.0 | 0.00 | 0.00 | 0.00 | 97 | 1027.8 |
| 20260510061325 | 52 | 170 | 0.0 | 0.0 | 0.00 | 0.00 | 0.00 | 97 | 1027.9 |
| 20260510060821 | 52 | 171 | 0.0 | 1.0 | 0.00 | 0.00 | 0.00 | 97 | 1027.7 |
| 20260510060318 | 52 | 161 | 0.0 | 0.0 | 0.00 | 0.00 | 0.00 | 97 | 1027.8 |
| 20260510055815 | 52 | 152 | 0.0 | 0.0 | 0.00 | 0.00 | 0.00 | 97 | 1027.8 |
| 20260510055314 | 51 | 132 | 0.0 | 0.0 | 0.00 | 0.00 | 0.00 | 97 | 1027.6 |
| 20260510054813 | 51 | 155 | 0.0 | 0.0 | 0.00 | 0.00 | 0.00 | 97 | 1027.8 |
| 20260510054309 | 52 | 165 | 0.0 | 0.0 | 0.00 | 0.00 | 0.00 | 97 | 1027.8 |
| 20260510053810 | 52 | 157 | 0.0 | 1.0 | 0.00 | 0.00 | 0.00 | 97 | 1027.9 |
| 20260510053305 | 52 | 146 | 0.0 | 0.0 | 0.00 | 0.00 | 0.00 | 96 | 1027.8 |
| 20260510052802 | 52 | 154 | 0.0 | 0.0 | 0.00 | 0.00 | 0.00 | 97 | 1028.2 |
| 20260510052257 | 52 | 112 | 0.0 | 1.0 | 0.00 | 0.00 | 0.00 | 97 | 1028.1 |
| 20260510051754 | 52 | 162 | 0.0 | 0.0 | 0.00 | 0.00 | 0.00 | 97 | 1028.2 |
| 20260510051250 | 52 | 119 | 0.0 | 0.0 | 0.00 | 0.00 | 0.00 | 96 | 1028.1 |
| 20260510050747 | 52 | 142 | 0.0 | 0.0 | 0.00 | 0.00 | 0.00 | 97 | 1028.2 |
| 20260510050244 | 52 | 127 | 0.0 | 0.0 | 0.00 | 0.00 | 0.00 | 97 | 1028.1 |
| 20260510045741 | 52 | 129 | 0.0 | 0.0 | 0.00 | 0.00 | 0.00 | 96 | 1028.1 |
| 20260510045238 | 51 | 142 | 1.0 | 1.0 | 0.00 | 0.00 | 0.00 | 96 | 1028.2 |
| 20260510044734 | 51 | 144 | 0.0 | 0.0 | 0.00 | 0.00 | 0.00 | 96 | 1028.2 |
| 20260510044232 | 51 | 157 | 0.0 | 0.0 | 0.00 | 0.00 | 0.00 | 96 | 1028.0 |
| 20260510043727 | 52 | 118 | 1.0 | 1.0 | 0.00 | 0.00 | 0.00 | 96 | 1027.6 |
| 20260510043225 | 51 | 122 | 1.0 | 1.0 | 0.00 | 0.00 | 0.00 | 96 | 1027.8 |
| 20260510042722 | 52 | 109 | 0.0 | 1.0 | 0.00 | 0.00 | 0.00 | 96 | 1027.8 |
| 20260510042217 | 52 | 108 | 1.0 | 1.0 | 0.00 | 0.00 | 0.00 | 96 | 1028.0 |
| 20260510041714 | 52 | 115 | 0.0 | 1.0 | 0.00 | 0.00 | 0.00 | 96 | 1028.0 |
| 20260510041212 | 51 | 33 | 0.0 | 1.0 | 0.00 | 0.00 | 0.00 | 96 | 1028.2 |
| 20260510040709 | 51 | 130 | 0.0 | 0.0 | 0.00 | 0.00 | 0.00 | 96 | 1028.0 |
| 20260510040206 | 51 | 113 | 0.0 | 1.0 | 0.00 | 0.00 | 0.00 | 96 | 1028.1 |
| 20260510035701 | 51 | 171 | 0.0 | 1.0 | 0.00 | 0.45 | 0.45 | 96 | 1028.1 |
| 20260510035157 | 51 | 130 | 0.0 | 0.0 | 0.00 | 0.45 | 0.45 | 96 | 1028.0 |
| 20260510034653 | 51 | 154 | 0.0 | 0.0 | 0.00 | 0.45 | 0.45 | 96 | 1027.9 |
| 20260510034151 | 51 | 135 | 0.0 | 0.0 | 0.00 | 0.45 | 0.45 | 96 | 1027.8 |
| 20260510033647 | 51 | 111 | 1.0 | 1.0 | 0.00 | 0.45 | 0.45 | 96 | 1027.7 |
| 20260510033145 | 51 | 109 | 0.0 | 1.0 | 0.00 | 0.45 | 0.45 | 96 | 1027.8 |
| 20260510032641 | 51 | 144 | 1.0 | 1.0 | 0.00 | 0.45 | 0.45 | 96 | 1027.8 |
| 20260510032136 | 51 | 129 | 1.0 | 2.0 | 0.00 | 0.45 | 0.45 | 96 | 1028.1 |
| 20260510031631 | 51 | 139 | 1.0 | 1.0 | 0.00 | 0.45 | 0.45 | 96 | 1027.8 |
| 20260510031129 | 51 | 70 | 1.0 | 2.0 | 0.00 | 0.45 | 0.45 | 96 | 1027.8 |
| 20260510030623 | 51 | 113 | 1.0 | 1.0 | 0.00 | 0.45 | 0.45 | 96 | 1027.6 |
| 20260510030121 | 51 | 81 | 3.0 | 3.0 | 0.00 | 0.45 | 0.45 | 96 | 1027.6 |
| 20260510025618 | 51 | 72 | 2.0 | 2.0 | 0.00 | 0.45 | 0.45 | 96 | 1027.6 |
| 20260510025115 | 51 | 127 | 1.0 | 1.0 | 0.00 | 0.45 | 0.45 | 96 | 1027.4 |
| 20260510024612 | 51 | 123 | 1.0 | 1.0 | 0.00 | 0.45 | 0.45 | 95 | 1027.6 |
| 20260510024108 | 51 | 64 | 0.0 | 1.0 | 0.00 | 0.45 | 0.45 | 95 | 1027.5 |
| 20260510023604 | 51 | 106 | 1.0 | 1.0 | 0.00 | 0.45 | 0.45 | 95 | 1027.9 |
| 20260510023102 | 52 | 150 | 0.0 | 0.0 | 0.00 | 0.45 | 0.45 | 95 | 1027.9 |
| 20260510022601 | 52 | 161 | 0.0 | 0.0 | 0.00 | 0.45 | 0.45 | 95 | 1027.7 |
| 20260510022056 | 52 | 146 | 0.0 | 0.0 | 0.00 | 0.45 | 0.45 | 95 | 1027.8 |
| 20260510021552 | 52 | 110 | 2.0 | 2.0 | 0.00 | 0.45 | 0.45 | 96 | 1027.9 |
| 20260510021050 | 52 | 113 | 2.0 | 2.0 | 0.00 | 0.45 | 0.45 | 96 | 1027.8 |
| 20260510020544 | 53 | 94 | 1.0 | 2.0 | 0.00 | 0.45 | 0.45 | 96 | 1027.9 |
| 20260510020040 | 53 | 119 | 2.0 | 3.0 | 0.00 | 0.45 | 0.45 | 96 | 1027.8 |
| 20260510015536 | 53 | 268 | 0.0 | 0.0 | 0.00 | 0.45 | 0.45 | 96 | 1028.0 |
| 20260510015032 | 53 | 147 | 0.0 | 1.0 | 0.00 | 0.45 | 0.45 | 96 | 1027.8 |
| 20260510014528 | 53 | 110 | 0.0 | 1.0 | 0.00 | 0.45 | 0.45 | 96 | 1028.0 |
| 20260510014026 | 53 | 154 | 0.0 | 0.0 | 0.00 | 0.45 | 0.45 | 96 | 1028.1 |
| 20260510013520 | 53 | 121 | 0.0 | 1.0 | 0.00 | 0.45 | 0.45 | 96 | 1027.9 |
| 20260510013017 | 53 | 77 | 1.0 | 2.0 | 0.00 | 0.45 | 0.45 | 96 | 1027.9 |
| 20260510012516 | 53 | 30 | 0.0 | 0.0 | 0.00 | 0.45 | 0.45 | 96 | 1027.8 |
| 20260510012013 | 53 | 145 | 0.0 | 0.0 | 0.00 | 0.45 | 0.45 | 96 | 1027.8 |
| 20260510011507 | 53 | 106 | 0.0 | 1.0 | 0.00 | 0.45 | 0.45 | 96 | 1027.6 |
| 20260510011003 | 53 | 134 | 1.0 | 1.0 | 0.00 | 0.45 | 0.45 | 96 | 1027.6 |
| 20260510010500 | 53 | 33 | 1.0 | 1.0 | 0.00 | 0.45 | 0.45 | 96 | 1027.5 |
| 20260510005957 | 53 | 107 | 1.0 | 2.0 | 0.00 | 0.45 | 0.45 | 96 | 1027.7 |
| 20260510005453 | 53 | 118 | 2.0 | 2.0 | 0.00 | 0.45 | 0.45 | 96 | 1027.5 |
| 20260510004951 | 53 | 138 | 1.0 | 2.0 | 0.00 | 0.45 | 0.45 | 96 | 1027.4 |
| 20260510004447 | 53 | 357 | 2.0 | 2.0 | 0.00 | 0.45 | 0.45 | 96 | 1027.3 |
| 20260510003946 | 53 | 138 | 0.0 | 0.0 | 0.00 | 0.45 | 0.45 | 96 | 1027.5 |
| 20260510003442 | 53 | 121 | 1.0 | 2.0 | 0.00 | 0.45 | 0.45 | 96 | 1027.2 |
| 20260510002942 | 53 | 108 | 2.0 | 2.0 | 0.00 | 0.45 | 0.45 | 96 | 1027.3 |
| 20260510002439 | 53 | 342 | 1.0 | 3.0 | 0.00 | 0.45 | 0.45 | 96 | 1027.4 |
| 20260510001935 | 53 | 88 | 1.0 | 2.0 | 0.05 | 0.45 | 0.45 | 96 | 1027.4 |
| 20260510001433 | 53 | 105 | 2.0 | 3.0 | 0.05 | 0.45 | 0.45 | 96 | 1027.2 |
| 20260510000931 | 53 | 154 | 3.0 | 3.0 | 0.07 | 0.44 | 0.44 | 96 | 1027.4 |
| 20260510000427 | 53 | 41 | 1.0 | 2.0 | 0.12 | 0.44 | 0.44 | 96 | 1027.4 |
| 20260509235923 | 53 | 135 | 1.0 | 2.0 | 0.12 | 0.44 | 0.44 | 96 | 1027.5 |
| 20260509235420 | 53 | 114 | 1.0 | 1.0 | 0.14 | 0.42 | 0.42 | 96 | 1027.6 |
| 20260509234916 | 53 | 114 | 1.0 | 1.0 | 0.14 | 0.42 | 0.42 | 96 | 1027.8 |
| 20260509234413 | 53 | 113 | 0.0 | 1.0 | 0.05 | 0.40 | 0.40 | 96 | 1027.8 |
| 20260509233911 | 53 | 113 | 0.0 | 1.0 | 0.05 | 0.40 | 0.40 | 96 | 1027.9 |
| 20260509233408 | 53 | 136 | 1.0 | 1.0 | 0.07 | 0.39 | 0.39 | 96 | 1027.9 |
| 20260509232904 | 53 | 132 | 2.0 | 2.0 | 0.12 | 0.39 | 0.39 | 96 | 1027.9 |
| 20260509232402 | 53 | 113 | 0.0 | 1.0 | 0.12 | 0.38 | 0.38 | 96 | 1027.7 |
| 20260509231858 | 53 | 94 | 1.0 | 2.0 | 0.12 | 0.37 | 0.37 | 96 | 1027.8 |
| 20260509231355 | 53 | 165 | 0.0 | 0.0 | 0.12 | 0.37 | 0.37 | 96 | 1028.0 |
| 20260509230853 | 53 | 333 | 0.0 | 1.0 | 0.12 | 0.35 | 0.35 | 96 | 1028.1 |
| 20260509230349 | 53 | 103 | 0.0 | 0.0 | 0.17 | 0.34 | 0.34 | 96 | 1028.1 |
| 20260509225845 | 53 | 120 | 1.0 | 3.0 | 0.19 | 0.33 | 0.33 | 96 | 1028.3 |